sensor_id;sensor_type;location;lat;lon;timestamp;P1;durP1;ratioP1;P2;durP2;ratioP2
15573;SDS011;7888;46.748;8.102;2023-02-02T00:00:46;2.47;;;1.30;;
15573;SDS011;7888;46.748;8.102;2023-02-02T00:03:12;3.23;;;1.20;;
15573;SDS011;7888;46.748;8.102;2023-02-02T00:05:46;3.33;;;1.20;;
15573;SDS011;7888;46.748;8.102;2023-02-02T00:08:18;3.33;;;1.27;;
15573;SDS011;7888;46.748;8.102;2023-02-02T00:10:45;2.90;;;1.17;;
15573;SDS011;7888;46.748;8.102;2023-02-02T00:13:12;2.90;;;1.63;;
15573;SDS011;7888;46.748;8.102;2023-02-02T00:15:38;2.13;;;1.23;;
15573;SDS011;7888;46.748;8.102;2023-02-02T00:18:05;2.87;;;1.30;;
15573;SDS011;7888;46.748;8.102;2023-02-02T00:20:31;1.67;;;1.20;;
15573;SDS011;7888;46.748;8.102;2023-02-02T00:23:01;2.03;;;1.20;;
15573;SDS011;7888;46.748;8.102;2023-02-02T00:25:28;2.50;;;1.30;;
15573;SDS011;7888;46.748;8.102;2023-02-02T00:27:54;2.17;;;1.00;;
15573;SDS011;7888;46.748;8.102;2023-02-02T00:30:21;2.30;;;1.03;;
15573;SDS011;7888;46.748;8.102;2023-02-02T00:32:46;3.37;;;1.10;;
15573;SDS011;7888;46.748;8.102;2023-02-02T00:35:14;2.40;;;1.10;;
15573;SDS011;7888;46.748;8.102;2023-02-02T00:37:40;3.37;;;1.40;;
15573;SDS011;7888;46.748;8.102;2023-02-02T00:40:06;2.73;;;1.33;;
15573;SDS011;7888;46.748;8.102;2023-02-02T00:42:34;3.27;;;1.30;;
15573;SDS011;7888;46.748;8.102;2023-02-02T00:45:00;3.70;;;1.03;;
15573;SDS011;7888;46.748;8.102;2023-02-02T00:47:43;4.23;;;1.20;;
15573;SDS011;7888;46.748;8.102;2023-02-02T00:50:13;2.90;;;1.43;;
15573;SDS011;7888;46.748;8.102;2023-02-02T00:52:44;2.50;;;1.00;;
15573;SDS011;7888;46.748;8.102;2023-02-02T00:55:12;2.83;;;1.07;;
15573;SDS011;7888;46.748;8.102;2023-02-02T00:57:39;2.47;;;1.40;;
15573;SDS011;7888;46.748;8.102;2023-02-02T01:00:10;3.50;;;1.60;;
15573;SDS011;7888;46.748;8.102;2023-02-02T01:02:39;2.30;;;1.50;;
15573;SDS011;7888;46.748;8.102;2023-02-02T01:05:05;3.33;;;1.83;;
15573;SDS011;7888;46.748;8.102;2023-02-02T01:07:31;2.37;;;1.10;;
15573;SDS011;7888;46.748;8.102;2023-02-02T01:09:57;3.37;;;1.50;;
15573;SDS011;7888;46.748;8.102;2023-02-02T01:12:23;3.47;;;1.20;;
15573;SDS011;7888;46.748;8.102;2023-02-02T01:14:49;1.90;;;1.30;;
15573;SDS011;7888;46.748;8.102;2023-02-02T01:17:14;2.60;;;1.23;;
15573;SDS011;7888;46.748;8.102;2023-02-02T01:19:41;1.83;;;1.40;;
15573;SDS011;7888;46.748;8.102;2023-02-02T01:22:07;2.57;;;1.33;;
15573;SDS011;7888;46.748;8.102;2023-02-02T01:24:33;2.73;;;1.50;;
15573;SDS011;7888;46.748;8.102;2023-02-02T01:26:59;3.67;;;1.30;;
15573;SDS011;7888;46.748;8.102;2023-02-02T01:29:25;2.53;;;1.33;;
15573;SDS011;7888;46.748;8.102;2023-02-02T01:31:51;1.63;;;1.13;;
15573;SDS011;7888;46.748;8.102;2023-02-02T01:34:17;2.23;;;1.20;;
15573;SDS011;7888;46.748;8.102;2023-02-02T01:36:43;3.33;;;1.30;;
15573;SDS011;7888;46.748;8.102;2023-02-02T01:39:08;3.33;;;1.30;;
15573;SDS011;7888;46.748;8.102;2023-02-02T01:41:34;2.23;;;1.10;;
15573;SDS011;7888;46.748;8.102;2023-02-02T01:44:04;2.00;;;1.10;;
15573;SDS011;7888;46.748;8.102;2023-02-02T01:46:51;1.97;;;1.23;;
15573;SDS011;7888;46.748;8.102;2023-02-02T01:49:17;2.60;;;1.40;;
15573;SDS011;7888;46.748;8.102;2023-02-02T01:51:49;3.57;;;1.30;;
15573;SDS011;7888;46.748;8.102;2023-02-02T01:54:56;4.40;;;1.23;;
15573;SDS011;7888;46.748;8.102;2023-02-02T01:57:24;2.77;;;1.30;;
15573;SDS011;7888;46.748;8.102;2023-02-02T01:59:59;3.90;;;1.60;;
15573;SDS011;7888;46.748;8.102;2023-02-02T02:02:31;1.80;;;1.03;;
15573;SDS011;7888;46.748;8.102;2023-02-02T02:04:57;1.60;;;1.20;;
15573;SDS011;7888;46.748;8.102;2023-02-02T02:07:27;2.27;;;1.10;;
15573;SDS011;7888;46.748;8.102;2023-02-02T02:09:53;4.57;;;1.67;;
15573;SDS011;7888;46.748;8.102;2023-02-02T02:12:19;1.77;;;1.30;;
15573;SDS011;7888;46.748;8.102;2023-02-02T02:14:46;3.70;;;1.27;;
15573;SDS011;7888;46.748;8.102;2023-02-02T03:24:14;1.67;;;1.03;;
15573;SDS011;7888;46.748;8.102;2023-02-02T03:26:40;1.43;;;1.07;;
15573;SDS011;7888;46.748;8.102;2023-02-02T03:29:06;1.50;;;1.30;;
15573;SDS011;7888;46.748;8.102;2023-02-02T03:31:32;2.90;;;1.20;;
15573;SDS011;7888;46.748;8.102;2023-02-02T03:33:57;4.93;;;1.27;;
15573;SDS011;7888;46.748;8.102;2023-02-02T03:36:23;2.37;;;1.27;;
15573;SDS011;7888;46.748;8.102;2023-02-02T03:38:49;4.30;;;1.40;;
15573;SDS011;7888;46.748;8.102;2023-02-02T03:41:15;2.30;;;1.00;;
15573;SDS011;7888;46.748;8.102;2023-02-02T03:43:41;3.50;;;1.10;;
15573;SDS011;7888;46.748;8.102;2023-02-02T03:46:06;3.20;;;1.30;;
15573;SDS011;7888;46.748;8.102;2023-02-02T03:48:36;1.93;;;1.43;;
15573;SDS011;7888;46.748;8.102;2023-02-02T03:51:09;5.10;;;1.50;;
15573;SDS011;7888;46.748;8.102;2023-02-02T03:53:41;3.07;;;1.30;;
15573;SDS011;7888;46.748;8.102;2023-02-02T03:56:13;3.67;;;1.60;;
15573;SDS011;7888;46.748;8.102;2023-02-02T03:58:40;2.53;;;1.50;;
15573;SDS011;7888;46.748;8.102;2023-02-02T04:01:06;2.87;;;1.77;;
15573;SDS011;7888;46.748;8.102;2023-02-02T04:03:36;3.87;;;1.63;;
15573;SDS011;7888;46.748;8.102;2023-02-02T04:06:02;3.17;;;1.10;;
15573;SDS011;7888;46.748;8.102;2023-02-02T04:08:28;1.53;;;1.10;;
15573;SDS011;7888;46.748;8.102;2023-02-02T04:10:55;2.93;;;1.23;;
15573;SDS011;7888;46.748;8.102;2023-02-02T04:13:21;2.47;;;1.23;;
15573;SDS011;7888;46.748;8.102;2023-02-02T04:15:46;2.17;;;1.30;;
15573;SDS011;7888;46.748;8.102;2023-02-02T04:18:12;1.93;;;1.10;;
15573;SDS011;7888;46.748;8.102;2023-02-02T04:20:38;1.50;;;1.20;;
15573;SDS011;7888;46.748;8.102;2023-02-02T04:23:04;1.83;;;1.60;;
15573;SDS011;7888;46.748;8.102;2023-02-02T04:25:30;2.07;;;1.20;;
15573;SDS011;7888;46.748;8.102;2023-02-02T04:27:55;2.47;;;1.23;;
15573;SDS011;7888;46.748;8.102;2023-02-02T04:30:21;2.53;;;1.60;;
15573;SDS011;7888;46.748;8.102;2023-02-02T04:32:47;1.90;;;1.33;;
15573;SDS011;7888;46.748;8.102;2023-02-02T04:35:15;2.97;;;1.10;;
15573;SDS011;7888;46.748;8.102;2023-02-02T04:37:40;2.93;;;1.30;;
15573;SDS011;7888;46.748;8.102;2023-02-02T04:40:06;3.20;;;1.20;;
15573;SDS011;7888;46.748;8.102;2023-02-02T04:42:33;2.60;;;1.20;;
15573;SDS011;7888;46.748;8.102;2023-02-02T04:44:59;1.93;;;1.33;;
15573;SDS011;7888;46.748;8.102;2023-02-02T04:47:24;2.07;;;1.10;;
15573;SDS011;7888;46.748;8.102;2023-02-02T04:49:50;2.80;;;1.30;;
15573;SDS011;7888;46.748;8.102;2023-02-02T04:52:16;1.43;;;1.10;;
15573;SDS011;7888;46.748;8.102;2023-02-02T04:54:42;2.80;;;2.07;;
15573;SDS011;7888;46.748;8.102;2023-02-02T04:57:07;4.33;;;2.03;;
15573;SDS011;7888;46.748;8.102;2023-02-02T04:59:33;3.70;;;1.80;;
15573;SDS011;7888;46.748;8.102;2023-02-02T05:01:59;3.63;;;1.57;;
15573;SDS011;7888;46.748;8.102;2023-02-02T05:04:26;2.00;;;1.30;;
15573;SDS011;7888;46.748;8.102;2023-02-02T05:06:52;3.50;;;1.27;;
15573;SDS011;7888;46.748;8.102;2023-02-02T05:09:18;2.20;;;1.37;;
15573;SDS011;7888;46.748;8.102;2023-02-02T05:11:44;2.00;;;1.30;;
15573;SDS011;7888;46.748;8.102;2023-02-02T05:14:10;1.23;;;0.90;;
15573;SDS011;7888;46.748;8.102;2023-02-02T05:16:36;4.50;;;1.53;;
15573;SDS011;7888;46.748;8.102;2023-02-02T05:19:03;2.93;;;1.50;;
15573;SDS011;7888;46.748;8.102;2023-02-02T05:21:29;2.10;;;1.20;;
15573;SDS011;7888;46.748;8.102;2023-02-02T05:23:56;1.23;;;0.90;;
15573;SDS011;7888;46.748;8.102;2023-02-02T05:26:23;3.00;;;1.20;;
15573;SDS011;7888;46.748;8.102;2023-02-02T05:28:51;3.13;;;1.10;;
15573;SDS011;7888;46.748;8.102;2023-02-02T05:31:17;1.23;;;1.00;;
15573;SDS011;7888;46.748;8.102;2023-02-02T05:33:44;2.67;;;1.40;;
15573;SDS011;7888;46.748;8.102;2023-02-02T05:36:10;2.53;;;1.30;;
15573;SDS011;7888;46.748;8.102;2023-02-02T05:38:36;2.10;;;1.30;;
15573;SDS011;7888;46.748;8.102;2023-02-02T05:41:02;3.60;;;1.33;;
15573;SDS011;7888;46.748;8.102;2023-02-02T05:43:29;2.70;;;1.40;;
15573;SDS011;7888;46.748;8.102;2023-02-02T05:45:56;2.20;;;1.47;;
15573;SDS011;7888;46.748;8.102;2023-02-02T05:48:22;2.50;;;1.10;;
15573;SDS011;7888;46.748;8.102;2023-02-02T05:50:54;3.40;;;1.40;;
15573;SDS011;7888;46.748;8.102;2023-02-02T05:53:30;3.27;;;1.30;;
15573;SDS011;7888;46.748;8.102;2023-02-02T05:55:57;2.40;;;1.20;;
15573;SDS011;7888;46.748;8.102;2023-02-02T05:58:23;2.67;;;1.67;;
15573;SDS011;7888;46.748;8.102;2023-02-02T06:00:50;4.03;;;2.53;;
15573;SDS011;7888;46.748;8.102;2023-02-02T06:03:16;6.43;;;3.97;;
15573;SDS011;7888;46.748;8.102;2023-02-02T06:05:41;6.80;;;3.40;;
15573;SDS011;7888;46.748;8.102;2023-02-02T06:08:07;5.97;;;4.23;;
15573;SDS011;7888;46.748;8.102;2023-02-02T06:10:33;12.63;;;6.97;;
15573;SDS011;7888;46.748;8.102;2023-02-02T06:12:59;13.20;;;8.23;;
15573;SDS011;7888;46.748;8.102;2023-02-02T06:15:25;13.50;;;7.90;;
15573;SDS011;7888;46.748;8.102;2023-02-02T06:17:52;12.30;;;6.00;;
15573;SDS011;7888;46.748;8.102;2023-02-02T06:20:18;9.97;;;6.17;;
15573;SDS011;7888;46.748;8.102;2023-02-02T06:22:44;4.83;;;2.87;;
15573;SDS011;7888;46.748;8.102;2023-02-02T06:25:10;4.83;;;2.87;;
15573;SDS011;7888;46.748;8.102;2023-02-02T06:27:35;5.23;;;2.83;;
15573;SDS011;7888;46.748;8.102;2023-02-02T06:30:01;7.60;;;4.50;;
15573;SDS011;7888;46.748;8.102;2023-02-02T06:32:28;9.67;;;6.13;;
15573;SDS011;7888;46.748;8.102;2023-02-02T06:34:54;8.00;;;5.63;;
15573;SDS011;7888;46.748;8.102;2023-02-02T06:37:20;9.60;;;6.80;;
15573;SDS011;7888;46.748;8.102;2023-02-02T06:39:46;10.80;;;7.93;;
15573;SDS011;7888;46.748;8.102;2023-02-02T06:42:12;10.27;;;8.43;;
15573;SDS011;7888;46.748;8.102;2023-02-02T06:44:37;8.70;;;6.70;;
15573;SDS011;7888;46.748;8.102;2023-02-02T06:47:03;8.83;;;6.13;;
15573;SDS011;7888;46.748;8.102;2023-02-02T06:49:29;6.80;;;4.90;;
15573;SDS011;7888;46.748;8.102;2023-02-02T06:51:54;8.27;;;5.77;;
15573;SDS011;7888;46.748;8.102;2023-02-02T06:54:20;8.17;;;5.50;;
15573;SDS011;7888;46.748;8.102;2023-02-02T06:56:46;8.10;;;5.67;;
15573;SDS011;7888;46.748;8.102;2023-02-02T06:59:12;8.67;;;5.50;;
15573;SDS011;7888;46.748;8.102;2023-02-02T07:01:37;5.40;;;4.43;;
15573;SDS011;7888;46.748;8.102;2023-02-02T07:04:03;8.30;;;5.97;;
15573;SDS011;7888;46.748;8.102;2023-02-02T07:06:29;13.23;;;7.67;;
15573;SDS011;7888;46.748;8.102;2023-02-02T07:08:55;14.63;;;6.53;;
15573;SDS011;7888;46.748;8.102;2023-02-02T07:11:21;11.53;;;5.90;;
15573;SDS011;7888;46.748;8.102;2023-02-02T07:13:48;8.37;;;5.00;;
15573;SDS011;7888;46.748;8.102;2023-02-02T07:16:15;5.03;;;2.90;;
15573;SDS011;7888;46.748;8.102;2023-02-02T07:18:43;5.00;;;2.30;;
15573;SDS011;7888;46.748;8.102;2023-02-02T07:21:19;4.50;;;2.30;;
15573;SDS011;7888;46.748;8.102;2023-02-02T07:23:47;6.67;;;2.40;;
15573;SDS011;7888;46.748;8.102;2023-02-02T07:26:14;4.73;;;1.87;;
15573;SDS011;7888;46.748;8.102;2023-02-02T07:28:43;2.50;;;1.37;;
15573;SDS011;7888;46.748;8.102;2023-02-02T07:31:17;3.83;;;1.87;;
15573;SDS011;7888;46.748;8.102;2023-02-02T07:33:47;4.37;;;1.97;;
15573;SDS011;7888;46.748;8.102;2023-02-02T07:36:14;3.77;;;2.70;;
15573;SDS011;7888;46.748;8.102;2023-02-02T07:38:43;6.63;;;3.40;;
15573;SDS011;7888;46.748;8.102;2023-02-02T07:41:13;8.00;;;4.80;;
15573;SDS011;7888;46.748;8.102;2023-02-02T07:43:40;7.20;;;4.90;;
15573;SDS011;7888;46.748;8.102;2023-02-02T07:46:06;6.17;;;4.37;;
15573;SDS011;7888;46.748;8.102;2023-02-02T07:48:36;5.33;;;3.97;;
15573;SDS011;7888;46.748;8.102;2023-02-02T07:51:04;7.60;;;4.40;;
15573;SDS011;7888;46.748;8.102;2023-02-02T07:53:32;6.00;;;3.90;;
15573;SDS011;7888;46.748;8.102;2023-02-02T07:56:12;2.40;;;2.10;;
15573;SDS011;7888;46.748;8.102;2023-02-02T07:58:44;4.57;;;2.00;;
15573;SDS011;7888;46.748;8.102;2023-02-02T08:01:11;2.50;;;2.30;;
15573;SDS011;7888;46.748;8.102;2023-02-02T08:03:39;2.77;;;2.47;;
15573;SDS011;7888;46.748;8.102;2023-02-02T08:08:40;3.03;;;2.23;;
15573;SDS011;7888;46.748;8.102;2023-02-02T08:11:09;2.90;;;1.87;;
15573;SDS011;7888;46.748;8.102;2023-02-02T08:13:37;3.90;;;1.70;;
15573;SDS011;7888;46.748;8.102;2023-02-02T08:16:05;5.10;;;1.93;;
15573;SDS011;7888;46.748;8.102;2023-02-02T08:18:31;3.50;;;2.10;;
15573;SDS011;7888;46.748;8.102;2023-02-02T08:20:59;3.83;;;2.03;;
15573;SDS011;7888;46.748;8.102;2023-02-02T08:23:26;3.00;;;2.03;;
15573;SDS011;7888;46.748;8.102;2023-02-02T08:25:52;3.73;;;1.83;;
15573;SDS011;7888;46.748;8.102;2023-02-02T08:28:28;3.60;;;1.90;;
15573;SDS011;7888;46.748;8.102;2023-02-02T08:30:54;3.60;;;1.80;;
15573;SDS011;7888;46.748;8.102;2023-02-02T08:33:20;2.30;;;1.73;;
15573;SDS011;7888;46.748;8.102;2023-02-02T08:35:46;3.63;;;2.07;;
15573;SDS011;7888;46.748;8.102;2023-02-02T08:38:11;2.10;;;1.70;;
15573;SDS011;7888;46.748;8.102;2023-02-02T08:40:37;2.47;;;1.73;;
15573;SDS011;7888;46.748;8.102;2023-02-02T08:43:03;2.57;;;1.83;;
15573;SDS011;7888;46.748;8.102;2023-02-02T08:45:29;3.73;;;2.07;;
15573;SDS011;7888;46.748;8.102;2023-02-02T08:47:56;2.40;;;2.00;;
15573;SDS011;7888;46.748;8.102;2023-02-02T08:50:22;2.83;;;2.03;;
15573;SDS011;7888;46.748;8.102;2023-02-02T08:52:47;3.93;;;2.10;;
15573;SDS011;7888;46.748;8.102;2023-02-02T08:55:13;3.53;;;2.20;;
15573;SDS011;7888;46.748;8.102;2023-02-02T08:57:39;3.00;;;1.90;;
15573;SDS011;7888;46.748;8.102;2023-02-02T09:00:05;2.63;;;1.87;;
15573;SDS011;7888;46.748;8.102;2023-02-02T09:02:32;3.57;;;2.10;;
15573;SDS011;7888;46.748;8.102;2023-02-02T09:04:58;4.30;;;2.40;;
15573;SDS011;7888;46.748;8.102;2023-02-02T09:07:24;4.83;;;2.30;;
15573;SDS011;7888;46.748;8.102;2023-02-02T09:09:49;2.60;;;2.30;;
15573;SDS011;7888;46.748;8.102;2023-02-02T09:12:17;4.27;;;2.47;;
15573;SDS011;7888;46.748;8.102;2023-02-02T09:14:43;4.33;;;2.20;;
15573;SDS011;7888;46.748;8.102;2023-02-02T09:17:09;4.03;;;2.20;;
15573;SDS011;7888;46.748;8.102;2023-02-02T09:19:35;3.73;;;2.13;;
15573;SDS011;7888;46.748;8.102;2023-02-02T09:22:00;2.50;;;1.80;;
15573;SDS011;7888;46.748;8.102;2023-02-02T09:24:26;3.37;;;1.97;;
15573;SDS011;7888;46.748;8.102;2023-02-02T09:26:52;3.50;;;2.20;;
15573;SDS011;7888;46.748;8.102;2023-02-02T09:29:18;2.60;;;2.10;;
15573;SDS011;7888;46.748;8.102;2023-02-02T09:31:44;5.03;;;2.40;;
15573;SDS011;7888;46.748;8.102;2023-02-02T09:34:11;4.10;;;2.37;;
15573;SDS011;7888;46.748;8.102;2023-02-02T09:36:39;3.37;;;2.17;;
15573;SDS011;7888;46.748;8.102;2023-02-02T09:39:07;5.57;;;2.33;;
15573;SDS011;7888;46.748;8.102;2023-02-02T09:50:46;2.97;;;2.00;;
15573;SDS011;7888;46.748;8.102;2023-02-02T09:53:40;3.87;;;1.83;;
15573;SDS011;7888;46.748;8.102;2023-02-02T09:56:17;2.33;;;1.93;;
15573;SDS011;7888;46.748;8.102;2023-02-02T09:58:52;4.43;;;2.00;;
15573;SDS011;7888;46.748;8.102;2023-02-02T10:01:22;3.33;;;2.13;;
15573;SDS011;7888;46.748;8.102;2023-02-02T10:03:57;2.80;;;1.90;;
15573;SDS011;7888;46.748;8.102;2023-02-02T10:06:35;2.00;;;1.80;;
15573;SDS011;7888;46.748;8.102;2023-02-02T10:12:30;2.00;;;1.70;;
15573;SDS011;7888;46.748;8.102;2023-02-02T10:15:26;3.37;;;2.00;;
15573;SDS011;7888;46.748;8.102;2023-02-02T10:21:11;3.67;;;1.77;;
15573;SDS011;7888;46.748;8.102;2023-02-02T10:24:21;2.03;;;1.30;;
15573;SDS011;7888;46.748;8.102;2023-02-02T10:26:55;5.03;;;2.37;;
15573;SDS011;7888;46.748;8.102;2023-02-02T10:29:41;3.83;;;1.73;;
15573;SDS011;7888;46.748;8.102;2023-02-02T10:32:24;3.97;;;2.00;;
15573;SDS011;7888;46.748;8.102;2023-02-02T10:35:15;4.33;;;1.80;;
15573;SDS011;7888;46.748;8.102;2023-02-02T10:38:13;3.60;;;1.60;;
15573;SDS011;7888;46.748;8.102;2023-02-02T10:41:20;2.57;;;1.53;;
15573;SDS011;7888;46.748;8.102;2023-02-02T10:44:23;2.03;;;1.70;;
15573;SDS011;7888;46.748;8.102;2023-02-02T10:46:52;4.53;;;2.50;;
15573;SDS011;7888;46.748;8.102;2023-02-02T10:49:38;2.80;;;1.90;;
15573;SDS011;7888;46.748;8.102;2023-02-02T10:52:12;2.60;;;1.80;;
15573;SDS011;7888;46.748;8.102;2023-02-02T11:00:26;3.00;;;2.00;;
15573;SDS011;7888;46.748;8.102;2023-02-02T11:03:16;2.30;;;1.67;;
15573;SDS011;7888;46.748;8.102;2023-02-02T11:05:45;1.97;;;1.60;;
15573;SDS011;7888;46.748;8.102;2023-02-02T11:08:31;2.87;;;1.50;;
15573;SDS011;7888;46.748;8.102;2023-02-02T11:11:08;4.93;;;1.70;;
15573;SDS011;7888;46.748;8.102;2023-02-02T11:13:52;4.20;;;2.27;;
15573;SDS011;7888;46.748;8.102;2023-02-02T11:16:43;3.17;;;2.13;;
15573;SDS011;7888;46.748;8.102;2023-02-02T11:19:25;2.33;;;1.80;;
15573;SDS011;7888;46.748;8.102;2023-02-02T11:21:55;2.60;;;1.80;;
15573;SDS011;7888;46.748;8.102;2023-02-02T11:24:28;3.77;;;1.90;;
15573;SDS011;7888;46.748;8.102;2023-02-02T11:27:14;2.10;;;1.57;;
15573;SDS011;7888;46.748;8.102;2023-02-02T11:29:45;1.93;;;1.30;;
15573;SDS011;7888;46.748;8.102;2023-02-02T11:34:51;3.03;;;1.60;;
15573;SDS011;7888;46.748;8.102;2023-02-02T11:37:33;4.27;;;1.90;;
15573;SDS011;7888;46.748;8.102;2023-02-02T11:40:19;3.20;;;1.90;;
15573;SDS011;7888;46.748;8.102;2023-02-02T11:42:55;5.70;;;1.30;;
15573;SDS011;7888;46.748;8.102;2023-02-02T11:45:31;2.40;;;1.40;;
15573;SDS011;7888;46.748;8.102;2023-02-02T11:48:05;1.87;;;1.47;;
15573;SDS011;7888;46.748;8.102;2023-02-02T11:50:38;1.90;;;1.10;;
15573;SDS011;7888;46.748;8.102;2023-02-02T11:56:17;2.63;;;1.20;;
15573;SDS011;7888;46.748;8.102;2023-02-02T11:58:53;1.93;;;1.30;;
15573;SDS011;7888;46.748;8.102;2023-02-02T12:04:02;2.43;;;1.17;;
15573;SDS011;7888;46.748;8.102;2023-02-02T12:06:37;2.07;;;1.23;;
15573;SDS011;7888;46.748;8.102;2023-02-02T12:09:09;2.20;;;1.40;;
15573;SDS011;7888;46.748;8.102;2023-02-02T12:11:55;3.03;;;1.40;;
15573;SDS011;7888;46.748;8.102;2023-02-02T12:15:05;3.50;;;1.30;;
15573;SDS011;7888;46.748;8.102;2023-02-02T12:18:06;1.10;;;1.00;;
15573;SDS011;7888;46.748;8.102;2023-02-02T12:26:37;2.80;;;1.07;;
15573;SDS011;7888;46.748;8.102;2023-02-02T12:35:13;2.87;;;1.03;;
15573;SDS011;7888;46.748;8.102;2023-02-02T12:38:39;2.13;;;1.03;;
15573;SDS011;7888;46.748;8.102;2023-02-02T12:44:13;1.73;;;1.23;;
15573;SDS011;7888;46.748;8.102;2023-02-02T12:58:32;1.50;;;1.02;;
15573;SDS011;7888;46.748;8.102;2023-02-02T13:03:59;1.73;;;1.20;;
15573;SDS011;7888;46.748;8.102;2023-02-02T13:12:25;1.50;;;0.90;;
15573;SDS011;7888;46.748;8.102;2023-02-02T13:15:00;1.87;;;1.30;;
15573;SDS011;7888;46.748;8.102;2023-02-02T13:17:39;3.33;;;1.40;;
15573;SDS011;7888;46.748;8.102;2023-02-02T13:20:40;1.90;;;1.47;;
15573;SDS011;7888;46.748;8.102;2023-02-02T13:26:47;1.60;;;1.20;;
15573;SDS011;7888;46.748;8.102;2023-02-02T13:31:47;1.23;;;1.00;;
15573;SDS011;7888;46.748;8.102;2023-02-02T13:37:24;2.00;;;1.37;;
15573;SDS011;7888;46.748;8.102;2023-02-02T13:46:17;2.73;;;1.47;;
15573;SDS011;7888;46.748;8.102;2023-02-02T13:49:28;1.77;;;1.30;;
15573;SDS011;7888;46.748;8.102;2023-02-02T14:01:01;2.80;;;1.20;;
15573;SDS011;7888;46.748;8.102;2023-02-02T14:03:35;1.20;;;0.80;;
15573;SDS011;7888;46.748;8.102;2023-02-02T14:06:18;2.87;;;1.13;;
15573;SDS011;7888;46.748;8.102;2023-02-02T14:14:20;1.27;;;0.80;;
15573;SDS011;7888;46.748;8.102;2023-02-02T14:24:39;3.73;;;1.20;;
15573;SDS011;7888;46.748;8.102;2023-02-02T14:43:34;2.67;;;1.03;;
15573;SDS011;7888;46.748;8.102;2023-02-02T14:46:23;2.27;;;1.00;;
15573;SDS011;7888;46.748;8.102;2023-02-02T14:51:27;1.30;;;0.90;;
15573;SDS011;7888;46.748;8.102;2023-02-02T14:54:00;1.00;;;0.80;;
15573;SDS011;7888;46.748;8.102;2023-02-02T14:56:41;2.97;;;1.63;;
15573;SDS011;7888;46.748;8.102;2023-02-02T14:59:16;3.87;;;1.20;;
15573;SDS011;7888;46.748;8.102;2023-02-02T15:01:53;1.80;;;0.90;;
15573;SDS011;7888;46.748;8.102;2023-02-02T15:04:46;3.93;;;0.90;;
15573;SDS011;7888;46.748;8.102;2023-02-02T15:09:50;2.30;;;0.80;;
15573;SDS011;7888;46.748;8.102;2023-02-02T15:15:25;1.87;;;1.00;;
15573;SDS011;7888;46.748;8.102;2023-02-02T15:20:43;3.23;;;1.00;;
15573;SDS011;7888;46.748;8.102;2023-02-02T15:31:27;1.10;;;1.00;;
15573;SDS011;7888;46.748;8.102;2023-02-02T15:34:26;3.00;;;0.93;;
15573;SDS011;7888;46.748;8.102;2023-02-02T15:37:04;3.40;;;0.97;;
15573;SDS011;7888;46.748;8.102;2023-02-02T15:39:37;0.77;;;0.77;;
15573;SDS011;7888;46.748;8.102;2023-02-02T15:42:12;2.03;;;0.97;;
15573;SDS011;7888;46.748;8.102;2023-02-02T15:48:23;2.50;;;0.80;;
15573;SDS011;7888;46.748;8.102;2023-02-02T15:50:54;1.67;;;0.70;;
15573;SDS011;7888;46.748;8.102;2023-02-02T15:53:25;1.80;;;1.07;;
15573;SDS011;7888;46.748;8.102;2023-02-02T15:58:49;3.53;;;1.17;;
15573;SDS011;7888;46.748;8.102;2023-02-02T16:01:19;3.57;;;0.97;;
15573;SDS011;7888;46.748;8.102;2023-02-02T16:06:25;3.60;;;1.13;;
15573;SDS011;7888;46.748;8.102;2023-02-02T16:08:54;1.50;;;1.00;;
15573;SDS011;7888;46.748;8.102;2023-02-02T16:11:20;2.93;;;1.00;;
15573;SDS011;7888;46.748;8.102;2023-02-02T16:14:03;3.83;;;1.50;;
15573;SDS011;7888;46.748;8.102;2023-02-02T16:16:37;2.70;;;1.33;;
15573;SDS011;7888;46.748;8.102;2023-02-02T16:21:34;2.57;;;0.87;;
15573;SDS011;7888;46.748;8.102;2023-02-02T16:24:06;1.37;;;1.00;;
15573;SDS011;7888;46.748;8.102;2023-02-02T16:26:41;2.27;;;1.13;;
15573;SDS011;7888;46.748;8.102;2023-02-02T16:29:11;4.23;;;1.50;;
15573;SDS011;7888;46.748;8.102;2023-02-02T16:31:42;2.27;;;1.50;;
15573;SDS011;7888;46.748;8.102;2023-02-02T16:34:18;2.23;;;1.63;;
15573;SDS011;7888;46.748;8.102;2023-02-02T16:37:23;3.73;;;1.50;;
15573;SDS011;7888;46.748;8.102;2023-02-02T16:39:53;2.53;;;1.67;;
15573;SDS011;7888;46.748;8.102;2023-02-02T16:42:22;4.23;;;1.50;;
15573;SDS011;7888;46.748;8.102;2023-02-02T16:44:55;2.80;;;1.60;;
15573;SDS011;7888;46.748;8.102;2023-02-02T16:49:50;4.57;;;1.17;;
15573;SDS011;7888;46.748;8.102;2023-02-02T16:52:19;2.53;;;1.60;;
15573;SDS011;7888;46.748;8.102;2023-02-02T16:54:50;2.10;;;1.23;;
15573;SDS011;7888;46.748;8.102;2023-02-02T16:57:29;2.30;;;1.20;;
15573;SDS011;7888;46.748;8.102;2023-02-02T17:00:05;4.27;;;1.60;;
15573;SDS011;7888;46.748;8.102;2023-02-02T17:02:39;3.00;;;1.43;;
15573;SDS011;7888;46.748;8.102;2023-02-02T17:05:19;3.30;;;1.60;;
15573;SDS011;7888;46.748;8.102;2023-02-02T17:07:57;3.47;;;1.37;;
15573;SDS011;7888;46.748;8.102;2023-02-02T17:10:29;0.80;;;0.70;;
15573;SDS011;7888;46.748;8.102;2023-02-02T17:13:01;1.20;;;0.60;;
15573;SDS011;7888;46.748;8.102;2023-02-02T17:15:56;1.27;;;0.70;;
15573;SDS011;7888;46.748;8.102;2023-02-02T17:18:24;1.73;;;0.93;;
15573;SDS011;7888;46.748;8.102;2023-02-02T17:20:50;2.23;;;1.33;;
15573;SDS011;7888;46.748;8.102;2023-02-02T17:23:22;3.23;;;1.20;;
15573;SDS011;7888;46.748;8.102;2023-02-02T17:25:52;3.70;;;1.40;;
15573;SDS011;7888;46.748;8.102;2023-02-02T17:28:19;1.30;;;1.07;;
15573;SDS011;7888;46.748;8.102;2023-02-02T17:30:55;4.77;;;1.47;;
15573;SDS011;7888;46.748;8.102;2023-02-02T17:33:27;3.97;;;1.17;;
15573;SDS011;7888;46.748;8.102;2023-02-02T17:35:52;3.73;;;0.90;;
15573;SDS011;7888;46.748;8.102;2023-02-02T17:38:19;1.30;;;0.77;;
15573;SDS011;7888;46.748;8.102;2023-02-02T17:40:47;2.83;;;1.00;;
15573;SDS011;7888;46.748;8.102;2023-02-02T17:43:14;3.43;;;1.00;;
15573;SDS011;7888;46.748;8.102;2023-02-02T17:45:40;1.77;;;0.90;;
15573;SDS011;7888;46.748;8.102;2023-02-02T17:48:08;2.53;;;1.00;;
15573;SDS011;7888;46.748;8.102;2023-02-02T17:50:37;2.53;;;0.87;;
15573;SDS011;7888;46.748;8.102;2023-02-02T17:53:08;2.17;;;1.00;;
15573;SDS011;7888;46.748;8.102;2023-02-02T17:55:41;1.70;;;1.00;;
15573;SDS011;7888;46.748;8.102;2023-02-02T17:58:10;1.93;;;0.90;;
15573;SDS011;7888;46.748;8.102;2023-02-02T18:00:41;5.07;;;1.50;;
15573;SDS011;7888;46.748;8.102;2023-02-02T18:03:23;3.33;;;1.20;;
15573;SDS011;7888;46.748;8.102;2023-02-02T18:05:54;2.27;;;1.57;;
15573;SDS011;7888;46.748;8.102;2023-02-02T18:08:29;3.27;;;1.37;;
15573;SDS011;7888;46.748;8.102;2023-02-02T18:10:56;4.67;;;1.40;;
15573;SDS011;7888;46.748;8.102;2023-02-02T18:13:23;2.70;;;1.37;;
15573;SDS011;7888;46.748;8.102;2023-02-02T18:15:50;1.30;;;1.20;;
15573;SDS011;7888;46.748;8.102;2023-02-02T18:18:17;4.23;;;1.67;;
15573;SDS011;7888;46.748;8.102;2023-02-02T18:20:47;2.63;;;1.43;;
15573;SDS011;7888;46.748;8.102;2023-02-02T18:23:15;3.93;;;1.60;;
15573;SDS011;7888;46.748;8.102;2023-02-02T18:25:42;2.20;;;1.50;;
15573;SDS011;7888;46.748;8.102;2023-02-02T18:28:09;2.43;;;1.30;;
15573;SDS011;7888;46.748;8.102;2023-02-02T18:30:38;2.00;;;1.20;;
15573;SDS011;7888;46.748;8.102;2023-02-02T18:33:08;2.47;;;1.23;;
15573;SDS011;7888;46.748;8.102;2023-02-02T18:35:39;2.93;;;1.13;;
15573;SDS011;7888;46.748;8.102;2023-02-02T18:38:07;2.53;;;1.20;;
15573;SDS011;7888;46.748;8.102;2023-02-02T18:40:33;3.13;;;2.20;;
15573;SDS011;7888;46.748;8.102;2023-02-02T18:42:59;2.43;;;1.63;;
15573;SDS011;7888;46.748;8.102;2023-02-02T18:45:24;2.53;;;1.87;;
15573;SDS011;7888;46.748;8.102;2023-02-02T18:47:50;3.10;;;1.60;;
15573;SDS011;7888;46.748;8.102;2023-02-02T18:50:16;2.43;;;1.70;;
15573;SDS011;7888;46.748;8.102;2023-02-02T18:52:42;2.37;;;1.57;;
15573;SDS011;7888;46.748;8.102;2023-02-02T18:55:08;2.17;;;1.63;;
15573;SDS011;7888;46.748;8.102;2023-02-02T18:57:34;1.97;;;1.33;;
15573;SDS011;7888;46.748;8.102;2023-02-02T19:00:00;3.77;;;1.67;;
15573;SDS011;7888;46.748;8.102;2023-02-02T19:02:26;3.03;;;1.60;;
15573;SDS011;7888;46.748;8.102;2023-02-02T19:04:52;2.10;;;1.40;;